Lewiston, North Carolina
Current Conditions -  °F | °C
As of 10:35 PM on Friday 19 Dec 2014 (Local Time) from KASJ Reporting Station
Clear Clear  
Wind Chill: 31°   Ceiling: Unl
Heat Index: 31°   Visibility: 10mi
Dew Point: 28°   Wind: 0mph
Humidity: 90%   Direction: NA
Pressure: 30.23"   Gusts: NA
Location:  36.0948°N, 77.2371°W
Report Text: KASJ 200335Z AUTO 00000KT 10SM CLR M01/M02 A3023 RMK AO2 T10071022
Loading
Personal Weather Stations






























Interactive Weather Map New forecast layout! Learn more

10-Day Weather Forecast

Advertisements
Track Severe Weather on mobile